Terminal Aerodrome Forecast
Issued by NWS

Home | Current Version | Previous Version | Text Only | Print | Product List | Glossary On
Versions: 1 2 3 4 5 6 7 8 9 10 11 12
000
FTUS44 KTSA 201700
TAFMLC
TAF
KMLC 201720Z 2018/2118 20008KT P6SM BKN060
     FM210000 14003KT P6SM SCT250
     FM211000 14003KT P6SM BKN035=

USA.gov is the U.S. government's official web portal to all federal, state and local government web resources and services.